Terminal Aerodrome Forecast
Issued by NWS

Home | Current Version | Previous Version | Text Only | Print | Product List | Glossary Off
Versions: 1 2 3 4 5 6 7 8 9 10 11 12 13 14 15 16 17 18

000
FTUS43 KICT 211100
TAFHUT
TAF
KHUT 211133Z 2112/2212 18010KT 4SM BR FEW007
     FM211400 18012KT P6SM SKC
     FM211600 20015G22KT P6SM SKC
     FM220200 18012KT P6SM SCT250=

USA.gov is the U.S. government's official web portal to all federal, state and local government web resources and services.